sensor_id;sensor_type;location;lat;lon;timestamp;P1;durP1;ratioP1;P2;durP2;ratioP2
23565;SDS011;22140;48.988;8.544;2022-11-20T00:02:56;18.00;;;6.93;;
23565;SDS011;22140;48.988;8.544;2022-11-20T00:07:57;17.57;;;7.27;;
23565;SDS011;22140;48.988;8.544;2022-11-20T00:12:58;15.88;;;6.55;;
23565;SDS011;22140;48.988;8.544;2022-11-20T00:17:59;17.10;;;6.80;;
23565;SDS011;22140;48.988;8.544;2022-11-20T00:23:01;18.33;;;7.65;;
23565;SDS011;22140;48.988;8.544;2022-11-20T00:28:02;19.75;;;7.95;;
23565;SDS011;22140;48.988;8.544;2022-11-20T00:33:03;17.67;;;7.30;;
23565;SDS011;22140;48.988;8.544;2022-11-20T00:38:04;15.57;;;6.93;;
23565;SDS011;22140;48.988;8.544;2022-11-20T00:43:06;16.75;;;6.57;;
23565;SDS011;22140;48.988;8.544;2022-11-20T00:48:07;15.33;;;6.60;;
23565;SDS011;22140;48.988;8.544;2022-11-20T00:53:08;16.10;;;7.05;;
23565;SDS011;22140;48.988;8.544;2022-11-20T00:58:09;15.50;;;6.53;;
23565;SDS011;22140;48.988;8.544;2022-11-20T01:03:15;14.52;;;7.03;;
23565;SDS011;22140;48.988;8.544;2022-11-20T01:08:16;14.93;;;7.10;;
23565;SDS011;22140;48.988;8.544;2022-11-20T01:13:17;14.25;;;6.63;;
23565;SDS011;22140;48.988;8.544;2022-11-20T01:18:38;14.95;;;7.00;;
23565;SDS011;22140;48.988;8.544;2022-11-20T01:23:41;14.67;;;6.77;;
23565;SDS011;22140;48.988;8.544;2022-11-20T01:28:42;14.35;;;6.75;;
23565;SDS011;22140;48.988;8.544;2022-11-20T01:33:46;15.55;;;6.63;;
23565;SDS011;22140;48.988;8.544;2022-11-20T01:38:47;14.65;;;6.10;;
23565;SDS011;22140;48.988;8.544;2022-11-20T01:43:49;15.70;;;5.85;;
23565;SDS011;22140;48.988;8.544;2022-11-20T01:48:51;12.17;;;5.47;;
23565;SDS011;22140;48.988;8.544;2022-11-20T01:53:55;11.18;;;4.70;;
23565;SDS011;22140;48.988;8.544;2022-11-20T01:58:58;11.52;;;4.50;;
23565;SDS011;22140;48.988;8.544;2022-11-20T02:04:01;12.23;;;4.60;;
23565;SDS011;22140;48.988;8.544;2022-11-20T02:09:03;10.93;;;4.55;;
23565;SDS011;22140;48.988;8.544;2022-11-20T02:14:04;10.30;;;3.77;;
23565;SDS011;22140;48.988;8.544;2022-11-20T02:19:07;11.10;;;3.80;;
23565;SDS011;22140;48.988;8.544;2022-11-20T02:29:19;10.47;;;3.80;;
23565;SDS011;22140;48.988;8.544;2022-11-20T02:34:22;10.25;;;3.97;;
23565;SDS011;22140;48.988;8.544;2022-11-20T02:39:24;10.67;;;3.70;;
23565;SDS011;22140;48.988;8.544;2022-11-20T02:44:26;8.70;;;3.72;;
23565;SDS011;22140;48.988;8.544;2022-11-20T02:49:27;8.32;;;3.42;;
23565;SDS011;22140;48.988;8.544;2022-11-20T02:54:28;10.23;;;3.53;;
23565;SDS011;22140;48.988;8.544;2022-11-20T02:59:30;9.95;;;3.55;;
23565;SDS011;22140;48.988;8.544;2022-11-20T03:04:31;9.30;;;3.37;;
23565;SDS011;22140;48.988;8.544;2022-11-20T03:09:32;10.00;;;3.50;;
23565;SDS011;22140;48.988;8.544;2022-11-20T03:14:34;8.82;;;3.15;;
23565;SDS011;22140;48.988;8.544;2022-11-20T03:19:35;11.13;;;3.40;;
23565;SDS011;22140;48.988;8.544;2022-11-20T03:24:36;9.68;;;3.53;;
23565;SDS011;22140;48.988;8.544;2022-11-20T03:29:38;8.37;;;3.27;;
23565;SDS011;22140;48.988;8.544;2022-11-20T03:34:39;9.35;;;3.20;;
23565;SDS011;22140;48.988;8.544;2022-11-20T03:39:40;7.50;;;3.22;;
23565;SDS011;22140;48.988;8.544;2022-11-20T03:44:41;8.32;;;3.03;;
23565;SDS011;22140;48.988;8.544;2022-11-20T03:49:43;7.20;;;2.72;;
23565;SDS011;22140;48.988;8.544;2022-11-20T03:54:44;8.73;;;3.23;;
23565;SDS011;22140;48.988;8.544;2022-11-20T03:59:45;9.15;;;2.90;;
23565;SDS011;22140;48.988;8.544;2022-11-20T04:04:47;8.93;;;3.00;;
23565;SDS011;22140;48.988;8.544;2022-11-20T04:09:48;7.90;;;2.57;;
23565;SDS011;22140;48.988;8.544;2022-11-20T04:14:49;7.20;;;2.80;;
23565;SDS011;22140;48.988;8.544;2022-11-20T04:19:50;7.77;;;3.13;;
23565;SDS011;22140;48.988;8.544;2022-11-20T04:24:52;10.35;;;2.97;;
23565;SDS011;22140;48.988;8.544;2022-11-20T04:29:53;7.82;;;2.70;;
23565;SDS011;22140;48.988;8.544;2022-11-20T04:34:54;7.53;;;2.70;;
23565;SDS011;22140;48.988;8.544;2022-11-20T04:39:55;8.20;;;2.60;;
23565;SDS011;22140;48.988;8.544;2022-11-20T04:44:57;7.90;;;2.67;;
23565;SDS011;22140;48.988;8.544;2022-11-20T04:49:58;7.47;;;2.80;;
23565;SDS011;22140;48.988;8.544;2022-11-20T04:54:59;7.18;;;2.50;;
23565;SDS011;22140;48.988;8.544;2022-11-20T05:00:01;8.40;;;3.10;;
23565;SDS011;22140;48.988;8.544;2022-11-20T05:05:02;8.73;;;2.70;;
23565;SDS011;22140;48.988;8.544;2022-11-20T05:10:04;7.20;;;2.33;;
23565;SDS011;22140;48.988;8.544;2022-11-20T05:15:05;7.72;;;2.33;;
23565;SDS011;22140;48.988;8.544;2022-11-20T05:20:07;7.07;;;2.40;;
23565;SDS011;22140;48.988;8.544;2022-11-20T05:25:08;6.67;;;2.27;;
23565;SDS011;22140;48.988;8.544;2022-11-20T05:30:10;7.05;;;1.95;;
23565;SDS011;22140;48.988;8.544;2022-11-20T05:35:11;6.33;;;1.90;;
23565;SDS011;22140;48.988;8.544;2022-11-20T05:40:12;6.30;;;1.83;;
23565;SDS011;22140;48.988;8.544;2022-11-20T05:45:14;5.30;;;1.55;;
23565;SDS011;22140;48.988;8.544;2022-11-20T05:50:15;8.43;;;1.80;;
23565;SDS011;22140;48.988;8.544;2022-11-20T05:55:16;7.25;;;1.58;;
23565;SDS011;22140;48.988;8.544;2022-11-20T06:00:18;5.57;;;1.53;;
23565;SDS011;22140;48.988;8.544;2022-11-20T06:05:19;5.38;;;1.50;;
23565;SDS011;22140;48.988;8.544;2022-11-20T06:10:20;5.20;;;1.60;;
23565;SDS011;22140;48.988;8.544;2022-11-20T06:15:21;5.77;;;1.60;;
23565;SDS011;22140;48.988;8.544;2022-11-20T06:20:23;5.72;;;1.25;;
23565;SDS011;22140;48.988;8.544;2022-11-20T06:25:24;7.60;;;1.60;;
23565;SDS011;22140;48.988;8.544;2022-11-20T06:30:25;5.10;;;1.30;;
23565;SDS011;22140;48.988;8.544;2022-11-20T06:35:26;4.75;;;1.40;;
23565;SDS011;22140;48.988;8.544;2022-11-20T06:40:28;6.03;;;1.40;;
23565;SDS011;22140;48.988;8.544;2022-11-20T06:45:29;5.75;;;1.40;;
23565;SDS011;22140;48.988;8.544;2022-11-20T06:50:30;5.00;;;1.53;;
23565;SDS011;22140;48.988;8.544;2022-11-20T06:55:32;4.72;;;1.38;;
23565;SDS011;22140;48.988;8.544;2022-11-20T07:00:33;6.82;;;1.40;;
23565;SDS011;22140;48.988;8.544;2022-11-20T07:05:35;4.50;;;1.23;;
23565;SDS011;22140;48.988;8.544;2022-11-20T07:10:36;6.03;;;1.38;;
23565;SDS011;22140;48.988;8.544;2022-11-20T07:15:37;5.37;;;1.47;;
23565;SDS011;22140;48.988;8.544;2022-11-20T07:20:39;5.40;;;1.60;;
23565;SDS011;22140;48.988;8.544;2022-11-20T07:25:40;6.03;;;1.30;;
23565;SDS011;22140;48.988;8.544;2022-11-20T07:30:41;7.03;;;1.60;;
23565;SDS011;22140;48.988;8.544;2022-11-20T07:35:42;6.15;;;1.70;;
23565;SDS011;22140;48.988;8.544;2022-11-20T07:40:44;5.33;;;1.47;;
23565;SDS011;22140;48.988;8.544;2022-11-20T07:45:45;5.40;;;1.50;;
23565;SDS011;22140;48.988;8.544;2022-11-20T07:50:46;4.25;;;1.00;;
23565;SDS011;22140;48.988;8.544;2022-11-20T07:55:48;5.50;;;1.33;;
23565;SDS011;22140;48.988;8.544;2022-11-20T08:00:49;7.07;;;1.80;;
23565;SDS011;22140;48.988;8.544;2022-11-20T08:05:50;5.37;;;1.67;;
23565;SDS011;22140;48.988;8.544;2022-11-20T08:10:52;4.30;;;1.20;;
23565;SDS011;22140;48.988;8.544;2022-11-20T08:15:53;5.53;;;1.35;;
23565;SDS011;22140;48.988;8.544;2022-11-20T08:20:54;6.30;;;1.30;;
23565;SDS011;22140;48.988;8.544;2022-11-20T08:25:56;4.97;;;1.40;;
23565;SDS011;22140;48.988;8.544;2022-11-20T08:30:58;6.17;;;1.40;;
23565;SDS011;22140;48.988;8.544;2022-11-20T08:36:00;6.30;;;1.50;;
23565;SDS011;22140;48.988;8.544;2022-11-20T08:41:02;5.60;;;1.55;;
23565;SDS011;22140;48.988;8.544;2022-11-20T08:46:24;4.87;;;1.63;;
23565;SDS011;22140;48.988;8.544;2022-11-20T08:51:25;6.70;;;1.67;;
23565;SDS011;22140;48.988;8.544;2022-11-20T08:56:27;6.27;;;1.73;;
23565;SDS011;22140;48.988;8.544;2022-11-20T09:01:29;6.20;;;1.80;;
23565;SDS011;22140;48.988;8.544;2022-11-20T09:06:30;6.25;;;2.30;;
23565;SDS011;22140;48.988;8.544;2022-11-20T09:11:32;13.27;;;2.87;;
23565;SDS011;22140;48.988;8.544;2022-11-20T09:16:33;6.45;;;2.20;;
23565;SDS011;22140;48.988;8.544;2022-11-20T09:21:34;7.33;;;2.40;;
23565;SDS011;22140;48.988;8.544;2022-11-20T09:26:36;7.43;;;2.40;;
23565;SDS011;22140;48.988;8.544;2022-11-20T09:31:37;7.32;;;1.98;;
23565;SDS011;22140;48.988;8.544;2022-11-20T09:36:38;8.33;;;2.40;;
23565;SDS011;22140;48.988;8.544;2022-11-20T09:46:47;6.03;;;2.00;;
23565;SDS011;22140;48.988;8.544;2022-11-20T09:51:57;7.82;;;2.22;;
23565;SDS011;22140;48.988;8.544;2022-11-20T09:57:00;8.02;;;2.83;;
23565;SDS011;22140;48.988;8.544;2022-11-20T10:02:02;10.77;;;3.07;;
23565;SDS011;22140;48.988;8.544;2022-11-20T10:07:27;8.35;;;2.83;;
23565;SDS011;22140;48.988;8.544;2022-11-20T10:12:46;8.43;;;2.40;;
23565;SDS011;22140;48.988;8.544;2022-11-20T10:33:05;9.27;;;2.80;;
23565;SDS011;22140;48.988;8.544;2022-11-20T10:38:13;7.07;;;2.50;;
23565;SDS011;22140;48.988;8.544;2022-11-20T10:43:16;8.35;;;2.58;;
23565;SDS011;22140;48.988;8.544;2022-11-20T10:48:25;10.15;;;2.97;;
23565;SDS011;22140;48.988;8.544;2022-11-20T10:59:05;8.23;;;2.55;;
23565;SDS011;22140;48.988;8.544;2022-11-20T11:04:30;7.90;;;2.50;;
23565;SDS011;22140;48.988;8.544;2022-11-20T11:09:38;9.40;;;2.67;;
23565;SDS011;22140;48.988;8.544;2022-11-20T11:14:47;10.18;;;2.53;;
23565;SDS011;22140;48.988;8.544;2022-11-20T11:19:59;7.63;;;2.43;;
23565;SDS011;22140;48.988;8.544;2022-11-20T11:25:00;6.50;;;2.13;;
23565;SDS011;22140;48.988;8.544;2022-11-20T11:30:12;10.50;;;2.43;;
23565;SDS011;22140;48.988;8.544;2022-11-20T11:35:32;9.25;;;2.20;;
23565;SDS011;22140;48.988;8.544;2022-11-20T11:40:34;6.88;;;2.30;;
23565;SDS011;22140;48.988;8.544;2022-11-20T11:45:37;7.43;;;2.43;;
23565;SDS011;22140;48.988;8.544;2022-11-20T11:50:38;7.70;;;1.90;;
23565;SDS011;22140;48.988;8.544;2022-11-20T11:56:08;8.73;;;2.30;;
23565;SDS011;22140;48.988;8.544;2022-11-20T12:06:32;8.38;;;2.10;;
23565;SDS011;22140;48.988;8.544;2022-11-20T12:11:54;5.37;;;1.70;;
23565;SDS011;22140;48.988;8.544;2022-11-20T12:16:56;9.73;;;1.73;;
23565;SDS011;22140;48.988;8.544;2022-11-20T12:37:48;7.63;;;1.80;;
23565;SDS011;22140;48.988;8.544;2022-11-20T12:58:44;8.13;;;1.60;;
23565;SDS011;22140;48.988;8.544;2022-11-20T13:03:51;5.10;;;1.20;;
23565;SDS011;22140;48.988;8.544;2022-11-20T13:08:54;6.88;;;1.70;;
23565;SDS011;22140;48.988;8.544;2022-11-20T13:19:02;6.70;;;1.63;;
23565;SDS011;22140;48.988;8.544;2022-11-20T13:24:06;5.55;;;1.45;;
23565;SDS011;22140;48.988;8.544;2022-11-20T13:29:09;4.93;;;1.10;;
23565;SDS011;22140;48.988;8.544;2022-11-20T13:34:13;5.55;;;1.95;;
23565;SDS011;22140;48.988;8.544;2022-11-20T13:39:23;6.67;;;1.50;;
23565;SDS011;22140;48.988;8.544;2022-11-20T13:44:38;12.50;;;1.95;;
23565;SDS011;22140;48.988;8.544;2022-11-20T13:49:40;6.10;;;1.13;;
23565;SDS011;22140;48.988;8.544;2022-11-20T14:05:22;6.20;;;1.47;;
23565;SDS011;22140;48.988;8.544;2022-11-20T14:10:25;6.70;;;0.90;;
23565;SDS011;22140;48.988;8.544;2022-11-20T14:15:32;5.07;;;1.15;;
23565;SDS011;22140;48.988;8.544;2022-11-20T14:20:34;6.40;;;0.90;;
23565;SDS011;22140;48.988;8.544;2022-11-20T14:25:35;5.68;;;1.13;;
23565;SDS011;22140;48.988;8.544;2022-11-20T14:30:43;7.23;;;2.10;;
23565;SDS011;22140;48.988;8.544;2022-11-20T14:35:47;7.10;;;1.20;;
23565;SDS011;22140;48.988;8.544;2022-11-20T14:40:48;5.32;;;1.38;;
23565;SDS011;22140;48.988;8.544;2022-11-20T14:46:00;4.80;;;1.03;;
23565;SDS011;22140;48.988;8.544;2022-11-20T14:51:02;6.45;;;1.20;;
23565;SDS011;22140;48.988;8.544;2022-11-20T14:56:03;6.73;;;1.30;;
23565;SDS011;22140;48.988;8.544;2022-11-20T15:01:05;7.05;;;1.08;;
23565;SDS011;22140;48.988;8.544;2022-11-20T15:06:09;5.10;;;1.10;;
23565;SDS011;22140;48.988;8.544;2022-11-20T15:11:18;7.07;;;1.10;;
23565;SDS011;22140;48.988;8.544;2022-11-20T15:16:20;6.03;;;1.10;;
23565;SDS011;22140;48.988;8.544;2022-11-20T15:21:22;7.80;;;1.53;;
23565;SDS011;22140;48.988;8.544;2022-11-20T15:26:24;7.28;;;1.27;;
23565;SDS011;22140;48.988;8.544;2022-11-20T15:31:26;5.80;;;0.98;;
23565;SDS011;22140;48.988;8.544;2022-11-20T15:36:27;5.10;;;1.10;;
23565;SDS011;22140;48.988;8.544;2022-11-20T15:41:29;7.10;;;1.23;;
23565;SDS011;22140;48.988;8.544;2022-11-20T15:46:31;5.43;;;1.10;;
23565;SDS011;22140;48.988;8.544;2022-11-20T15:51:36;4.35;;;1.35;;
23565;SDS011;22140;48.988;8.544;2022-11-20T15:56:38;6.25;;;1.20;;
23565;SDS011;22140;48.988;8.544;2022-11-20T16:01:39;5.50;;;1.30;;
23565;SDS011;22140;48.988;8.544;2022-11-20T16:06:41;7.57;;;1.80;;
23565;SDS011;22140;48.988;8.544;2022-11-20T16:11:42;6.40;;;1.67;;
23565;SDS011;22140;48.988;8.544;2022-11-20T16:16:43;5.30;;;1.25;;
23565;SDS011;22140;48.988;8.544;2022-11-20T16:21:45;7.70;;;1.85;;
23565;SDS011;22140;48.988;8.544;2022-11-20T16:26:46;7.07;;;1.57;;
23565;SDS011;22140;48.988;8.544;2022-11-20T16:31:47;7.45;;;1.90;;
23565;SDS011;22140;48.988;8.544;2022-11-20T16:36:48;14.30;;;2.17;;
23565;SDS011;22140;48.988;8.544;2022-11-20T16:41:50;8.82;;;1.60;;
23565;SDS011;22140;48.988;8.544;2022-11-20T16:46:51;9.60;;;3.50;;
23565;SDS011;22140;48.988;8.544;2022-11-20T16:51:52;9.20;;;3.80;;
23565;SDS011;22140;48.988;8.544;2022-11-20T16:56:54;7.20;;;1.50;;
23565;SDS011;22140;48.988;8.544;2022-11-20T17:01:55;10.30;;;2.10;;
23565;SDS011;22140;48.988;8.544;2022-11-20T17:06:56;5.82;;;1.42;;
23565;SDS011;22140;48.988;8.544;2022-11-20T17:11:58;7.97;;;2.10;;
23565;SDS011;22140;48.988;8.544;2022-11-20T17:16:59;6.57;;;2.10;;
23565;SDS011;22140;48.988;8.544;2022-11-20T17:22:00;9.70;;;2.45;;
23565;SDS011;22140;48.988;8.544;2022-11-20T17:27:02;6.60;;;2.20;;
23565;SDS011;22140;48.988;8.544;2022-11-20T17:32:03;11.70;;;2.97;;
23565;SDS011;22140;48.988;8.544;2022-11-20T17:37:04;7.07;;;2.22;;
23565;SDS011;22140;48.988;8.544;2022-11-20T17:42:06;7.70;;;1.90;;
23565;SDS011;22140;48.988;8.544;2022-11-20T17:47:26;6.30;;;1.40;;
23565;SDS011;22140;48.988;8.544;2022-11-20T17:52:27;6.47;;;1.77;;
23565;SDS011;22140;48.988;8.544;2022-11-20T17:57:28;6.32;;;1.80;;
23565;SDS011;22140;48.988;8.544;2022-11-20T18:02:48;7.05;;;1.50;;
23565;SDS011;22140;48.988;8.544;2022-11-20T18:07:51;9.53;;;2.30;;
23565;SDS011;22140;48.988;8.544;2022-11-20T18:12:52;4.15;;;1.00;;
23565;SDS011;22140;48.988;8.544;2022-11-20T18:17:54;8.40;;;3.40;;
23565;SDS011;22140;48.988;8.544;2022-11-20T18:22:56;6.03;;;1.40;;
23565;SDS011;22140;48.988;8.544;2022-11-20T18:27:57;6.88;;;1.60;;
23565;SDS011;22140;48.988;8.544;2022-11-20T18:32:58;6.60;;;1.20;;
23565;SDS011;22140;48.988;8.544;2022-11-20T18:38:00;6.88;;;1.45;;
23565;SDS011;22140;48.988;8.544;2022-11-20T18:43:01;4.33;;;1.13;;
23565;SDS011;22140;48.988;8.544;2022-11-20T18:48:21;4.78;;;1.10;;
23565;SDS011;22140;48.988;8.544;2022-11-20T18:53:23;9.55;;;2.63;;
23565;SDS011;22140;48.988;8.544;2022-11-20T18:58:24;6.22;;;1.40;;
23565;SDS011;22140;48.988;8.544;2022-11-20T19:03:27;7.10;;;1.95;;
23565;SDS011;22140;48.988;8.544;2022-11-20T19:08:29;8.23;;;2.10;;
23565;SDS011;22140;48.988;8.544;2022-11-20T19:13:31;11.70;;;2.90;;
23565;SDS011;22140;48.988;8.544;2022-11-20T19:18:32;8.55;;;2.72;;
23565;SDS011;22140;48.988;8.544;2022-11-20T19:23:33;7.17;;;2.00;;
23565;SDS011;22140;48.988;8.544;2022-11-20T19:28:35;6.03;;;1.95;;
23565;SDS011;22140;48.988;8.544;2022-11-20T19:33:37;6.17;;;2.20;;
23565;SDS011;22140;48.988;8.544;2022-11-20T19:38:38;7.80;;;1.60;;
23565;SDS011;22140;48.988;8.544;2022-11-20T19:43:46;5.18;;;1.38;;
23565;SDS011;22140;48.988;8.544;2022-11-20T19:48:49;5.43;;;1.50;;
23565;SDS011;22140;48.988;8.544;2022-11-20T19:53:51;5.13;;;1.20;;
23565;SDS011;22140;48.988;8.544;2022-11-20T19:58:53;7.00;;;1.20;;
23565;SDS011;22140;48.988;8.544;2022-11-20T20:03:54;5.22;;;1.30;;
23565;SDS011;22140;48.988;8.544;2022-11-20T20:08:58;6.43;;;1.55;;
23565;SDS011;22140;48.988;8.544;2022-11-20T20:14:00;6.70;;;1.00;;
23565;SDS011;22140;48.988;8.544;2022-11-20T20:19:02;5.07;;;1.23;;
23565;SDS011;22140;48.988;8.544;2022-11-20T20:24:04;5.93;;;1.30;;
23565;SDS011;22140;48.988;8.544;2022-11-20T20:29:06;6.82;;;1.20;;
23565;SDS011;22140;48.988;8.544;2022-11-20T20:34:07;4.97;;;1.23;;
23565;SDS011;22140;48.988;8.544;2022-11-20T20:39:08;4.93;;;1.05;;
23565;SDS011;22140;48.988;8.544;2022-11-20T20:44:10;5.10;;;1.08;;
23565;SDS011;22140;48.988;8.544;2022-11-20T20:49:32;5.60;;;1.23;;
23565;SDS011;22140;48.988;8.544;2022-11-20T20:54:33;5.32;;;1.20;;
23565;SDS011;22140;48.988;8.544;2022-11-20T20:59:34;5.47;;;1.30;;
23565;SDS011;22140;48.988;8.544;2022-11-20T21:04:36;4.68;;;1.30;;
23565;SDS011;22140;48.988;8.544;2022-11-20T21:09:37;6.15;;;1.50;;
23565;SDS011;22140;48.988;8.544;2022-11-20T21:14:38;4.53;;;1.07;;
23565;SDS011;22140;48.988;8.544;2022-11-20T21:19:39;5.32;;;1.00;;
23565;SDS011;22140;48.988;8.544;2022-11-20T21:24:41;6.93;;;1.17;;
23565;SDS011;22140;48.988;8.544;2022-11-20T21:29:43;5.97;;;1.10;;
23565;SDS011;22140;48.988;8.544;2022-11-20T21:34:44;5.20;;;1.30;;
23565;SDS011;22140;48.988;8.544;2022-11-20T21:39:45;4.27;;;1.00;;
23565;SDS011;22140;48.988;8.544;2022-11-20T21:44:51;4.15;;;0.90;;
23565;SDS011;22140;48.988;8.544;2022-11-20T21:49:53;5.68;;;1.17;;
23565;SDS011;22140;48.988;8.544;2022-11-20T21:54:54;4.03;;;1.00;;
23565;SDS011;22140;48.988;8.544;2022-11-20T21:59:55;3.65;;;1.00;;
23565;SDS011;22140;48.988;8.544;2022-11-20T22:04:56;5.73;;;1.37;;
23565;SDS011;22140;48.988;8.544;2022-11-20T22:09:58;3.50;;;0.90;;
23565;SDS011;22140;48.988;8.544;2022-11-20T22:14:59;4.72;;;1.10;;
23565;SDS011;22140;48.988;8.544;2022-11-20T22:20:00;5.38;;;1.02;;
23565;SDS011;22140;48.988;8.544;2022-11-20T22:25:02;7.43;;;1.20;;
23565;SDS011;22140;48.988;8.544;2022-11-20T22:30:03;5.40;;;1.00;;
23565;SDS011;22140;48.988;8.544;2022-11-20T22:35:04;4.40;;;0.90;;
23565;SDS011;22140;48.988;8.544;2022-11-20T22:40:06;3.88;;;0.70;;
23565;SDS011;22140;48.988;8.544;2022-11-20T22:45:07;4.38;;;0.90;;
23565;SDS011;22140;48.988;8.544;2022-11-20T22:50:09;7.97;;;1.02;;
23565;SDS011;22140;48.988;8.544;2022-11-20T22:55:10;4.77;;;1.10;;
23565;SDS011;22140;48.988;8.544;2022-11-20T23:00:16;5.35;;;1.10;;
23565;SDS011;22140;48.988;8.544;2022-11-20T23:05:18;3.05;;;0.80;;
23565;SDS011;22140;48.988;8.544;2022-11-20T23:10:19;6.07;;;1.30;;
23565;SDS011;22140;48.988;8.544;2022-11-20T23:15:20;4.32;;;0.80;;
23565;SDS011;22140;48.988;8.544;2022-11-20T23:20:21;4.90;;;0.90;;
23565;SDS011;22140;48.988;8.544;2022-11-20T23:25:23;4.53;;;0.90;;
23565;SDS011;22140;48.988;8.544;2022-11-20T23:30:24;3.70;;;0.70;;
23565;SDS011;22140;48.988;8.544;2022-11-20T23:35:25;4.72;;;0.82;;
23565;SDS011;22140;48.988;8.544;2022-11-20T23:40:27;5.07;;;1.02;;
23565;SDS011;22140;48.988;8.544;2022-11-20T23:45:28;7.20;;;1.13;;
23565;SDS011;22140;48.988;8.544;2022-11-20T23:50:29;3.65;;;0.77;;
23565;SDS011;22140;48.988;8.544;2022-11-20T23:55:31;3.35;;;0.70;;
